createdAt,value
2023-04-23T00:00:47.191Z,0.00
2023-04-23T00:01:47.183Z,0.00
2023-04-23T00:02:47.350Z,0.00
2023-04-23T00:03:47.384Z,0.00
2023-04-23T00:04:47.455Z,0.00
2023-04-23T00:05:47.080Z,0.00
2023-04-23T00:06:47.096Z,0.00
2023-04-23T00:07:47.030Z,0.00
2023-04-23T00:08:47.005Z,0.00
2023-04-23T00:09:47.003Z,0.00
2023-04-23T00:10:46.960Z,0.00
2023-04-23T00:11:46.936Z,0.00
2023-04-23T00:12:46.910Z,0.00
2023-04-23T00:13:46.888Z,0.00
2023-04-23T00:14:46.871Z,0.00
2023-04-23T00:15:46.848Z,0.00
2023-04-23T00:16:46.816Z,0.00
2023-04-23T00:17:46.866Z,0.00
2023-04-23T00:18:46.765Z,0.00
2023-04-23T00:19:46.744Z,0.00
2023-04-23T00:20:46.719Z,0.00
2023-04-23T00:21:46.697Z,0.00
2023-04-23T00:22:46.687Z,0.00
2023-04-23T00:23:46.662Z,0.00
2023-04-23T00:24:46.624Z,0.00
2023-04-23T00:25:46.649Z,0.00
2023-04-23T00:26:46.576Z,0.00
2023-04-23T00:27:46.560Z,0.00
2023-04-23T00:28:46.536Z,0.00
2023-04-23T00:29:46.512Z,0.00
2023-04-23T00:30:46.489Z,0.00
2023-04-23T00:31:46.508Z,0.00
2023-04-23T00:32:46.470Z,0.00
2023-04-23T00:33:46.414Z,0.00
2023-04-23T00:34:46.394Z,0.00
2023-04-23T00:35:46.372Z,0.00
2023-04-23T00:36:46.352Z,0.00
2023-04-23T00:37:46.320Z,0.00
2023-04-23T00:38:46.298Z,0.00
2023-04-23T00:39:46.283Z,0.00
2023-04-23T00:40:46.251Z,0.00
2023-04-23T00:41:46.267Z,0.00
2023-04-23T00:42:46.205Z,0.00
2023-04-23T00:43:46.193Z,0.00
2023-04-23T00:44:46.160Z,0.00
2023-04-23T00:45:46.153Z,0.00
2023-04-23T00:46:46.118Z,0.00
2023-04-23T00:47:46.182Z,0.00
2023-04-23T00:48:46.065Z,0.00
2023-04-23T00:49:46.042Z,0.00
2023-04-23T00:50:46.016Z,0.00
2023-04-23T00:51:46.007Z,0.00
2023-04-23T00:52:45.981Z,0.00
2023-04-23T00:53:45.951Z,0.00
2023-04-23T00:54:45.926Z,0.00
2023-04-23T00:55:45.907Z,0.00
2023-04-23T00:56:45.877Z,0.00
2023-04-23T00:57:45.881Z,0.00
2023-04-23T00:58:45.828Z,0.00
2023-04-23T00:59:45.813Z,0.00
2023-04-23T01:00:45.800Z,0.00
2023-04-23T01:01:45.772Z,0.00
2023-04-23T01:02:45.812Z,0.00
2023-04-23T01:03:45.856Z,0.00
2023-04-23T01:04:45.692Z,0.00
2023-04-23T01:05:45.674Z,0.00
2023-04-23T01:06:45.654Z,0.00
2023-04-23T01:07:45.636Z,0.00
2023-04-23T01:08:45.604Z,0.00
2023-04-23T01:09:45.588Z,0.00
2023-04-23T01:10:45.556Z,0.00
2023-04-23T01:11:45.543Z,0.00
2023-04-23T01:12:45.506Z,0.00
2023-04-23T01:13:45.505Z,0.00
2023-04-23T01:14:45.466Z,0.00
2023-04-23T01:15:45.460Z,0.00
2023-04-23T01:16:45.431Z,0.00
2023-04-23T01:17:45.431Z,0.00
2023-04-23T01:18:45.375Z,0.00
2023-04-23T01:19:45.349Z,0.00
2023-04-23T01:20:45.329Z,0.00
2023-04-23T01:21:45.305Z,0.00
2023-04-23T01:22:45.286Z,0.00
2023-04-23T01:23:45.264Z,0.00
2023-04-23T01:24:45.232Z,0.00
2023-04-23T01:25:45.205Z,0.00
2023-04-23T01:26:45.185Z,0.00
2023-04-23T01:27:45.162Z,0.00
2023-04-23T01:28:45.136Z,0.00
2023-04-23T01:29:45.141Z,0.00
2023-04-23T01:30:45.132Z,0.00
2023-04-23T01:31:45.078Z,0.00
2023-04-23T01:32:45.102Z,0.00
2023-04-23T01:33:45.020Z,0.00
2023-04-23T01:34:44.994Z,0.00
2023-04-23T01:35:44.973Z,0.00
2023-04-23T01:36:44.940Z,0.00
2023-04-23T01:37:44.937Z,0.00
2023-04-23T01:38:44.901Z,0.00
2023-04-23T01:39:44.872Z,0.00
2023-04-23T01:40:44.855Z,0.00
2023-04-23T01:41:44.824Z,0.00
2023-04-23T01:42:44.821Z,0.00
2023-04-23T01:43:44.791Z,0.00
2023-04-23T01:44:44.760Z,0.00
2023-04-23T01:45:44.756Z,0.00
2023-04-23T01:46:44.709Z,0.00
2023-04-23T01:47:44.807Z,0.00
2023-04-23T01:48:44.665Z,0.00
2023-04-23T01:49:44.644Z,0.00
2023-04-23T01:50:44.626Z,0.00
2023-04-23T01:51:44.594Z,0.00
2023-04-23T01:52:44.572Z,0.00
2023-04-23T01:53:44.544Z,0.00
2023-04-23T01:54:44.540Z,0.00
2023-04-23T01:55:44.496Z,0.00
2023-04-23T01:56:44.476Z,0.00
2023-04-23T01:57:44.451Z,0.00
2023-04-23T01:58:44.425Z,0.00
2023-04-23T01:59:44.413Z,0.00
2023-04-23T02:00:44.391Z,0.00
2023-04-23T02:01:44.450Z,0.00
2023-04-23T02:02:44.511Z,0.00
2023-04-23T02:03:44.492Z,0.00
2023-04-23T02:04:44.600Z,0.00
2023-04-23T02:05:44.271Z,0.00
2023-04-23T02:06:44.238Z,0.00
2023-04-23T02:07:44.218Z,0.00
2023-04-23T02:08:44.194Z,0.00
2023-04-23T02:09:44.178Z,0.00
2023-04-23T02:10:44.148Z,0.00
2023-04-23T02:11:44.134Z,0.00
2023-04-23T02:12:44.097Z,0.00
2023-04-23T02:13:44.076Z,0.00
2023-04-23T02:14:44.120Z,0.00
2023-04-23T02:15:44.058Z,0.00
2023-04-23T02:16:44.000Z,0.00
2023-04-23T02:17:44.042Z,0.00
2023-04-23T02:18:43.961Z,0.00
2023-04-23T02:19:43.941Z,0.00
2023-04-23T02:20:43.929Z,0.00
2023-04-23T02:21:43.894Z,0.00
2023-04-23T02:22:43.863Z,0.00
2023-04-23T02:23:43.844Z,0.00
2023-04-23T02:24:44.051Z,0.00
2023-04-23T02:25:43.794Z,0.00
2023-04-23T02:26:43.766Z,0.00
2023-04-23T02:27:43.750Z,0.00
2023-04-23T02:28:43.735Z,0.00
2023-04-23T02:29:43.700Z,0.00
2023-04-23T02:30:43.674Z,0.00
2023-04-23T02:31:43.695Z,0.00
2023-04-23T02:32:43.645Z,0.00
2023-04-23T02:33:43.649Z,0.00
2023-04-23T02:34:43.755Z,0.00
2023-04-23T02:35:43.558Z,0.00
2023-04-23T02:36:43.528Z,0.00
2023-04-23T02:37:43.514Z,0.00
2023-04-23T02:38:43.498Z,0.00
2023-04-23T02:39:43.476Z,0.00
2023-04-23T02:40:43.443Z,0.00
2023-04-23T02:41:43.419Z,0.00
2023-04-23T02:42:44.067Z,0.00
2023-04-23T02:43:43.377Z,0.00
2023-04-23T02:44:43.573Z,0.00
2023-04-23T02:45:43.326Z,0.00
2023-04-23T02:46:43.313Z,0.00
2023-04-23T02:47:43.335Z,0.00
2023-04-23T02:48:43.249Z,0.00
2023-04-23T02:49:43.253Z,0.00
2023-04-23T02:50:43.203Z,0.00
2023-04-23T02:51:43.187Z,0.00
2023-04-23T02:52:43.157Z,0.00
2023-04-23T02:53:43.129Z,0.00
2023-04-23T02:54:43.376Z,0.00
2023-04-23T02:55:43.087Z,0.00
2023-04-23T02:56:43.067Z,0.00
2023-04-23T02:57:43.039Z,0.00
2023-04-23T02:58:43.012Z,0.00
2023-04-23T02:59:42.994Z,0.00
2023-04-23T03:00:43.098Z,0.00
2023-04-23T03:01:42.971Z,0.00
2023-04-23T03:02:43.056Z,0.00
2023-04-23T03:03:43.070Z,0.00
2023-04-23T03:04:43.149Z,0.00
2023-04-23T03:05:42.894Z,0.00
2023-04-23T03:06:42.825Z,0.00
2023-04-23T03:07:42.804Z,0.00
2023-04-23T03:08:42.795Z,0.00
2023-04-23T03:09:42.767Z,0.00
2023-04-23T03:10:42.729Z,0.00
2023-04-23T03:11:42.709Z,0.00
2023-04-23T03:12:42.682Z,0.00
2023-04-23T03:13:42.660Z,0.00
2023-04-23T03:14:42.921Z,0.00
2023-04-23T03:15:42.611Z,0.00
2023-04-23T03:16:42.606Z,0.00
2023-04-23T03:17:42.601Z,0.00
2023-04-23T03:18:42.545Z,0.00
2023-04-23T03:19:42.515Z,0.00
2023-04-23T03:20:42.496Z,0.00
2023-04-23T03:21:42.487Z,0.00
2023-04-23T03:22:42.444Z,0.00
2023-04-23T03:23:42.427Z,0.00
2023-04-23T03:24:42.763Z,0.00
2023-04-23T03:25:42.388Z,0.00
2023-04-23T03:26:42.351Z,0.00
2023-04-23T03:27:42.326Z,0.00
2023-04-23T03:28:42.307Z,0.00
2023-04-23T03:29:42.284Z,0.00
2023-04-23T03:30:42.288Z,0.00
2023-04-23T03:31:42.229Z,0.00
2023-04-23T03:32:42.215Z,0.00
2023-04-23T03:33:42.185Z,0.00
2023-04-23T03:34:42.366Z,0.00
2023-04-23T03:35:42.160Z,0.00
2023-04-23T03:36:42.103Z,0.00
2023-04-23T03:37:42.110Z,0.00
2023-04-23T03:38:42.062Z,0.00
2023-04-23T03:39:42.044Z,0.00
2023-04-23T03:40:42.012Z,0.00
2023-04-23T03:41:41.993Z,0.00
2023-04-23T03:42:41.968Z,0.00
2023-04-23T03:43:41.941Z,0.00
2023-04-23T03:44:42.103Z,0.00
2023-04-23T03:45:41.899Z,0.00
2023-04-23T03:46:41.881Z,0.00
2023-04-23T03:47:41.878Z,0.00
2023-04-23T03:48:41.834Z,0.00
2023-04-23T03:49:41.800Z,0.00
2023-04-23T03:50:41.781Z,0.00
2023-04-23T03:51:41.755Z,0.00
2023-04-23T03:52:41.733Z,0.00
2023-04-23T03:53:41.743Z,0.00
2023-04-23T03:54:41.980Z,0.00
2023-04-23T03:55:41.665Z,0.00
2023-04-23T03:56:41.639Z,0.00
2023-04-23T03:57:41.611Z,0.00
2023-04-23T03:58:41.599Z,0.00
2023-04-23T03:59:41.569Z,0.00
2023-04-23T04:00:41.554Z,0.00
2023-04-23T04:01:41.528Z,0.00
2023-04-23T04:02:41.623Z,4.00
2023-04-23T04:03:41.695Z,4.00
2023-04-23T04:04:41.927Z,0.00
2023-04-23T04:05:41.563Z,4.00
2023-04-23T04:06:41.402Z,4.00
2023-04-23T04:07:41.384Z,4.00
2023-04-23T04:08:41.365Z,4.00
2023-04-23T04:09:41.361Z,0.00
2023-04-23T04:10:41.316Z,4.00
2023-04-23T04:11:41.310Z,4.00
2023-04-23T04:12:41.273Z,4.00
2023-04-23T04:13:41.241Z,4.00
2023-04-23T04:14:41.500Z,8.00
2023-04-23T04:15:41.199Z,4.00
2023-04-23T04:16:41.175Z,4.00
2023-04-23T04:17:41.191Z,8.00
2023-04-23T04:18:41.123Z,8.00
2023-04-23T04:19:41.095Z,4.00
2023-04-23T04:20:41.089Z,8.00
2023-04-23T04:21:41.056Z,12.00
2023-04-23T04:22:41.043Z,8.00
2023-04-23T04:23:41.003Z,8.00
2023-04-23T04:24:41.175Z,8.00
2023-04-23T04:25:40.984Z,12.00
2023-04-23T04:26:40.933Z,12.00
2023-04-23T04:27:40.906Z,16.00
2023-04-23T04:28:40.884Z,12.00
2023-04-23T04:29:40.919Z,16.00
2023-04-23T04:30:40.838Z,16.00
2023-04-23T04:31:40.837Z,16.00
2023-04-23T04:32:40.831Z,20.00
2023-04-23T04:33:40.765Z,20.00
2023-04-23T04:34:41.032Z,20.00
2023-04-23T04:35:40.717Z,20.00
2023-04-23T04:36:40.695Z,28.00
2023-04-23T04:37:40.677Z,28.00
2023-04-23T04:38:40.658Z,28.00
2023-04-23T04:39:40.625Z,28.00
2023-04-23T04:40:40.600Z,28.00
2023-04-23T04:41:40.589Z,28.00
2023-04-23T04:42:40.563Z,28.00
2023-04-23T04:43:40.532Z,28.00
2023-04-23T04:44:40.706Z,32.00
2023-04-23T04:45:40.476Z,32.00
2023-04-23T04:46:40.536Z,36.00
2023-04-23T04:47:40.442Z,36.00
2023-04-23T04:48:40.411Z,36.00
2023-04-23T04:49:40.399Z,40.00
2023-04-23T04:50:40.361Z,40.00
2023-04-23T04:51:40.337Z,40.00
2023-04-23T04:52:40.318Z,44.00
2023-04-23T04:53:40.289Z,44.00
2023-04-23T04:54:40.530Z,48.00
2023-04-23T04:55:40.242Z,44.00
2023-04-23T04:56:40.220Z,48.00
2023-04-23T04:57:40.212Z,52.00
2023-04-23T04:58:40.176Z,52.00
2023-04-23T04:59:40.432Z,48.00
2023-04-23T05:00:40.129Z,52.00
2023-04-23T05:01:40.103Z,52.00
2023-04-23T05:02:40.183Z,56.00
2023-04-23T05:03:40.198Z,52.00
2023-04-23T05:04:40.184Z,56.00
2023-04-23T05:05:40.006Z,56.00
2023-04-23T05:06:39.987Z,60.00
2023-04-23T05:07:39.963Z,60.00
2023-04-23T05:08:39.933Z,64.00
2023-04-23T05:09:39.906Z,64.00
2023-04-23T05:10:39.889Z,68.00
2023-04-23T05:11:39.859Z,72.00
2023-04-23T05:12:39.847Z,72.00
2023-04-23T05:13:39.837Z,76.00
2023-04-23T05:14:40.194Z,80.00
2023-04-23T05:15:39.770Z,84.00
2023-04-23T05:16:39.779Z,84.00
2023-04-23T05:17:39.754Z,92.00
2023-04-23T05:18:39.705Z,100.00
2023-04-23T05:19:39.686Z,104.00
2023-04-23T05:20:39.658Z,108.00
2023-04-23T05:21:39.636Z,108.00
2023-04-23T05:22:39.618Z,108.00
2023-04-23T05:23:39.587Z,116.00
2023-04-23T05:24:39.761Z,108.00
2023-04-23T05:25:39.544Z,108.00
2023-04-23T05:26:39.517Z,112.00
2023-04-23T05:27:39.486Z,116.00
2023-04-23T05:28:39.475Z,120.00
2023-04-23T05:29:39.465Z,116.00
2023-04-23T05:30:39.417Z,124.00
2023-04-23T05:31:39.431Z,132.00
2023-04-23T05:32:39.394Z,140.00
2023-04-23T05:33:49.291Z,148.00
2023-04-23T05:34:39.475Z,148.00
2023-04-23T05:35:39.304Z,164.00
2023-04-23T05:36:39.279Z,164.00
2023-04-23T05:37:39.252Z,164.00
2023-04-23T05:38:39.233Z,168.00
2023-04-23T05:39:39.193Z,168.00
2023-04-23T05:40:39.201Z,172.00
2023-04-23T05:41:39.155Z,176.00
2023-04-23T05:42:39.130Z,176.00
2023-04-23T05:43:39.123Z,184.00
2023-04-23T05:44:39.177Z,192.00
2023-04-23T05:45:39.078Z,196.00
2023-04-23T05:46:39.032Z,200.00
2023-04-23T05:47:39.031Z,200.00
2023-04-23T05:48:38.993Z,204.00
2023-04-23T05:49:38.962Z,200.00
2023-04-23T05:50:38.940Z,208.00
2023-04-23T05:51:38.943Z,212.00
2023-04-23T05:52:38.891Z,220.00
2023-04-23T05:53:38.863Z,216.00
2023-04-23T05:54:38.987Z,224.00
2023-04-23T05:55:38.826Z,228.00
2023-04-23T05:56:38.793Z,224.00
2023-04-23T05:57:38.772Z,224.00
2023-04-23T05:58:38.842Z,224.00
2023-04-23T05:59:38.722Z,232.00
2023-04-23T06:00:38.704Z,228.00
2023-04-23T06:01:38.695Z,236.00
2023-04-23T06:02:38.720Z,240.00
2023-04-23T06:03:38.858Z,236.00
2023-04-23T06:04:38.894Z,240.00
2023-04-23T06:05:38.808Z,244.00
2023-04-23T06:06:38.572Z,244.00
2023-04-23T06:07:38.536Z,244.00
2023-04-23T06:08:38.550Z,248.00
2023-04-23T06:09:38.488Z,252.00
2023-04-23T06:10:38.472Z,248.00
2023-04-23T06:11:38.447Z,252.00
2023-04-23T06:12:38.421Z,252.00
2023-04-23T06:13:38.391Z,256.00
2023-04-23T06:14:38.476Z,260.00
2023-04-23T06:15:38.344Z,260.00
2023-04-23T06:16:38.337Z,264.00
2023-04-23T06:17:38.373Z,264.00
2023-04-23T06:18:38.281Z,268.00
2023-04-23T06:19:38.267Z,272.00
2023-04-23T06:20:38.222Z,272.00
2023-04-23T06:21:38.223Z,276.00
2023-04-23T06:22:38.199Z,276.00
2023-04-23T06:23:38.178Z,276.00
2023-04-23T06:24:38.136Z,284.00
2023-04-23T06:25:38.104Z,288.00
2023-04-23T06:26:38.088Z,288.00
2023-04-23T06:27:38.082Z,288.00
2023-04-23T06:28:38.038Z,292.00
2023-04-23T06:29:38.016Z,296.00
2023-04-23T06:30:37.993Z,296.00
2023-04-23T06:31:38.048Z,296.00
2023-04-23T06:32:38.008Z,300.00
2023-04-23T06:33:37.937Z,304.00
2023-04-23T06:34:44.092Z,308.00
2023-04-23T06:35:37.892Z,308.00
2023-04-23T06:36:37.876Z,312.00
2023-04-23T06:37:37.828Z,316.00
2023-04-23T06:38:37.805Z,324.00
2023-04-23T06:39:37.778Z,324.00
2023-04-23T06:40:37.833Z,336.00
2023-04-23T06:41:37.734Z,340.00
2023-04-23T06:42:37.706Z,344.00
2023-04-23T06:43:37.686Z,352.00
2023-04-23T06:44:37.668Z,364.00
2023-04-23T06:45:37.641Z,376.00
2023-04-23T06:46:37.701Z,396.00
2023-04-23T06:47:37.653Z,416.00
2023-04-23T06:48:37.581Z,436.00
2023-04-23T06:49:37.572Z,464.00
2023-04-23T06:50:37.518Z,496.00
2023-04-23T06:51:37.505Z,532.00
2023-04-23T06:52:37.477Z,568.00
2023-04-23T06:53:37.454Z,612.00
2023-04-23T06:54:37.440Z,656.00
2023-04-23T06:55:37.406Z,696.00
2023-04-23T06:56:37.384Z,728.00
2023-04-23T06:57:37.375Z,748.00
2023-04-23T06:58:37.338Z,752.00
2023-04-23T06:59:37.325Z,760.00
2023-04-23T07:00:37.309Z,644.00
2023-04-23T07:01:37.266Z,724.00
2023-04-23T07:02:37.378Z,580.00
2023-04-23T07:03:37.225Z,556.00
2023-04-23T07:04:37.263Z,512.00
2023-04-23T07:05:37.207Z,536.00
2023-04-23T07:06:37.166Z,496.00
2023-04-23T07:07:37.140Z,572.00
2023-04-23T07:08:37.118Z,584.00
2023-04-23T07:09:37.095Z,652.00
2023-04-23T07:10:37.083Z,788.00
2023-04-23T07:11:37.073Z,708.00
2023-04-23T07:12:37.031Z,768.00
2023-04-23T07:13:37.008Z,712.00
2023-04-23T07:14:36.985Z,680.00
2023-04-23T07:15:36.985Z,668.00
2023-04-23T07:16:36.974Z,632.00
2023-04-23T07:17:36.924Z,620.00
2023-04-23T07:18:36.896Z,624.00
2023-04-23T07:19:36.873Z,584.00
2023-04-23T07:20:36.866Z,576.00
2023-04-23T07:21:36.838Z,608.00
2023-04-23T07:22:36.808Z,596.00
2023-04-23T07:23:36.779Z,636.00
2023-04-23T07:24:36.773Z,864.00
2023-04-23T07:25:36.743Z,1168.00
2023-04-23T07:26:36.723Z,1092.00
2023-04-23T07:27:36.691Z,864.00
2023-04-23T07:28:36.665Z,780.00
2023-04-23T07:29:36.664Z,1012.00
2023-04-23T07:30:36.633Z,724.00
2023-04-23T07:31:36.682Z,776.00
2023-04-23T07:32:36.622Z,500.00
2023-04-23T07:33:36.554Z,432.00
2023-04-23T07:34:37.987Z,396.00
2023-04-23T07:35:36.510Z,376.00
2023-04-23T07:36:36.485Z,364.00
2023-04-23T07:37:36.491Z,356.00
2023-04-23T07:38:36.441Z,356.00
2023-04-23T07:39:36.422Z,360.00
2023-04-23T07:40:36.402Z,364.00
2023-04-23T07:41:36.369Z,372.00
2023-04-23T07:42:36.344Z,384.00
2023-04-23T07:43:36.326Z,400.00
2023-04-23T07:44:36.300Z,404.00
2023-04-23T07:45:36.293Z,404.00
2023-04-23T07:46:36.260Z,392.00
2023-04-23T07:47:36.293Z,380.00
2023-04-23T07:48:36.229Z,388.00
2023-04-23T07:49:36.189Z,392.00
2023-04-23T07:50:36.197Z,408.00
2023-04-23T07:51:36.240Z,428.00
2023-04-23T07:52:36.132Z,448.00
2023-04-23T07:53:36.160Z,472.00
2023-04-23T07:54:36.077Z,484.00
2023-04-23T07:55:36.054Z,496.00
2023-04-23T07:56:36.028Z,516.00
2023-04-23T07:57:36.005Z,540.00
2023-04-23T07:58:35.989Z,568.00
2023-04-23T07:59:35.960Z,584.00
2023-04-23T08:00:35.937Z,600.00
2023-04-23T08:01:35.932Z,612.00
2023-04-23T08:02:36.064Z,628.00
2023-04-23T08:03:36.113Z,596.00
2023-04-23T08:04:35.954Z,600.00
2023-04-23T08:05:35.884Z,624.00
2023-04-23T08:06:35.802Z,636.00
2023-04-23T08:07:35.789Z,640.00
2023-04-23T08:08:35.758Z,680.00
2023-04-23T08:09:35.756Z,708.00
2023-04-23T08:10:35.705Z,780.00
2023-04-23T08:11:35.690Z,728.00
2023-04-23T08:12:35.655Z,684.00
2023-04-23T08:13:35.641Z,700.00
2023-04-23T08:14:35.613Z,716.00
2023-04-23T08:15:35.594Z,612.00
2023-04-23T08:16:38.631Z,588.00
2023-04-23T08:17:35.574Z,524.00
2023-04-23T08:18:35.527Z,520.00
2023-04-23T08:19:35.506Z,528.00
2023-04-23T08:20:35.516Z,552.00
2023-04-23T08:21:35.451Z,580.00
2023-04-23T08:22:35.441Z,600.00
2023-04-23T08:23:35.410Z,644.00
2023-04-23T08:24:35.389Z,712.00
2023-04-23T08:25:35.390Z,772.00
2023-04-23T08:26:35.339Z,1156.00
2023-04-23T08:27:35.319Z,708.00
2023-04-23T08:28:35.291Z,696.00
2023-04-23T08:29:35.279Z,704.00
2023-04-23T08:30:35.262Z,756.00
2023-04-23T08:31:35.245Z,780.00
2023-04-23T08:32:35.211Z,972.00
2023-04-23T08:33:35.182Z,1696.00
2023-04-23T08:34:35.873Z,1248.00
2023-04-23T08:35:35.138Z,832.00
2023-04-23T08:36:35.108Z,804.00
2023-04-23T08:37:35.111Z,752.00
2023-04-23T08:38:35.067Z,1208.00
2023-04-23T08:39:35.052Z,696.00
2023-04-23T08:40:35.026Z,772.00
2023-04-23T08:41:35.026Z,1528.00
2023-04-23T08:42:34.979Z,2072.00
2023-04-23T08:43:34.956Z,1340.00
2023-04-23T08:44:34.927Z,864.00
2023-04-23T08:45:34.930Z,1148.00
2023-04-23T08:46:34.919Z,1024.00
2023-04-23T08:47:34.884Z,1088.00
2023-04-23T08:48:34.840Z,1120.00
2023-04-23T08:49:34.838Z,1692.00
2023-04-23T08:50:34.802Z,1932.00
2023-04-23T08:51:34.783Z,1952.00
2023-04-23T08:52:34.750Z,1908.00
2023-04-23T08:53:34.736Z,1892.00
2023-04-23T08:54:34.709Z,1980.00
2023-04-23T08:55:34.687Z,1900.00
2023-04-23T08:56:34.666Z,2028.00
2023-04-23T08:57:34.666Z,2048.00
2023-04-23T08:58:34.619Z,2008.00
2023-04-23T08:59:34.649Z,2036.00
2023-04-23T09:00:34.615Z,2100.00
2023-04-23T09:01:34.556Z,2040.00
2023-04-23T09:02:34.611Z,1940.00
2023-04-23T09:03:34.582Z,1912.00
2023-04-23T09:04:34.506Z,1912.00
2023-04-23T09:05:34.471Z,1724.00
2023-04-23T09:06:34.445Z,1940.00
2023-04-23T09:07:34.423Z,1968.00
2023-04-23T09:08:34.413Z,1980.00
2023-04-23T09:09:34.381Z,2008.00
2023-04-23T09:10:34.359Z,2040.00
2023-04-23T09:11:34.341Z,2052.00
2023-04-23T09:12:34.311Z,2028.00
2023-04-23T09:13:34.315Z,2012.00
2023-04-23T09:14:34.278Z,2016.00
2023-04-23T09:15:34.255Z,2028.00
2023-04-23T09:16:34.254Z,2048.00
2023-04-23T09:17:34.244Z,2120.00
2023-04-23T09:18:34.189Z,1872.00
2023-04-23T09:19:34.170Z,2168.00
2023-04-23T09:20:34.143Z,760.00
2023-04-23T09:21:34.119Z,680.00
2023-04-23T09:22:34.098Z,568.00
2023-04-23T09:23:34.081Z,1084.00
2023-04-23T09:24:34.055Z,2072.00
2023-04-23T09:25:34.042Z,2156.00
2023-04-23T09:26:34.017Z,2192.00
2023-04-23T09:27:34.009Z,2232.00
2023-04-23T09:28:33.968Z,952.00
2023-04-23T09:29:33.976Z,840.00
2023-04-23T09:30:33.927Z,2308.00
2023-04-23T09:31:33.953Z,2268.00
2023-04-23T09:32:33.925Z,892.00
2023-04-23T09:33:33.862Z,680.00
2023-04-23T09:34:33.846Z,1400.00
2023-04-23T09:35:33.822Z,2336.00
2023-04-23T09:36:33.795Z,648.00
2023-04-23T09:37:33.776Z,632.00
2023-04-23T09:38:33.759Z,2344.00
2023-04-23T09:39:33.744Z,1848.00
2023-04-23T09:40:33.711Z,652.00
2023-04-23T09:41:33.703Z,812.00
2023-04-23T09:42:33.673Z,2372.00
2023-04-23T09:43:33.654Z,2092.00
2023-04-23T09:44:33.623Z,664.00
2023-04-23T09:45:33.632Z,632.00
2023-04-23T09:46:33.589Z,1164.00
2023-04-23T09:47:33.635Z,1588.00
2023-04-23T09:48:33.537Z,812.00
2023-04-23T09:49:33.522Z,1216.00
2023-04-23T09:50:33.502Z,2384.00
2023-04-23T09:51:33.481Z,2088.00
2023-04-23T09:52:33.467Z,572.00
2023-04-23T09:53:33.432Z,536.00
2023-04-23T09:54:33.414Z,564.00
2023-04-23T09:55:33.390Z,636.00
2023-04-23T09:56:33.371Z,708.00
2023-04-23T09:57:33.345Z,2436.00
2023-04-23T09:58:33.330Z,2508.00
2023-04-23T09:59:47.098Z,2488.00
2023-04-23T10:00:33.277Z,2436.00
2023-04-23T10:01:33.344Z,940.00
2023-04-23T10:02:33.323Z,1064.00
2023-04-23T10:03:33.342Z,1512.00
2023-04-23T10:04:33.435Z,2312.00
2023-04-23T10:05:45.276Z,2296.00
2023-04-23T10:06:44.278Z,2264.00
2023-04-23T10:07:33.133Z,2220.00
2023-04-23T10:08:33.108Z,2244.00
2023-04-23T10:09:33.096Z,2188.00
2023-04-23T10:10:33.390Z,2120.00
2023-04-23T10:11:33.044Z,2212.00
2023-04-23T10:12:52.110Z,2208.00
2023-04-23T10:13:33.003Z,1996.00
2023-04-23T10:14:32.972Z,2052.00
2023-04-23T10:15:33.003Z,2164.00
2023-04-23T10:16:42.090Z,1988.00
2023-04-23T10:17:32.980Z,1892.00
2023-04-23T10:18:32.889Z,1856.00
2023-04-23T10:19:32.873Z,2424.00
2023-04-23T10:20:32.851Z,2284.00
2023-04-23T10:21:42.901Z,2340.00
2023-04-23T10:22:32.813Z,2404.00
2023-04-23T10:23:32.794Z,2396.00
2023-04-23T10:24:32.762Z,2388.00
2023-04-23T10:25:32.754Z,2208.00
2023-04-23T10:26:32.721Z,2020.00
2023-04-23T10:27:40.655Z,1904.00
2023-04-23T10:28:32.680Z,828.00
2023-04-23T10:29:32.664Z,1064.00
2023-04-23T10:30:32.635Z,1724.00
2023-04-23T10:31:32.664Z,1732.00
2023-04-23T10:32:32.646Z,1824.00
2023-04-23T10:33:37.606Z,1516.00
2023-04-23T10:34:32.611Z,1316.00
2023-04-23T10:35:32.550Z,1728.00
2023-04-23T10:36:32.522Z,1960.00
2023-04-23T10:37:32.504Z,928.00
2023-04-23T10:38:32.476Z,916.00
2023-04-23T10:39:32.457Z,1600.00
2023-04-23T10:40:32.469Z,2416.00
2023-04-23T10:41:32.424Z,984.00
2023-04-23T10:42:32.386Z,1016.00
2023-04-23T10:43:32.372Z,1492.00
2023-04-23T10:44:46.973Z,2412.00
2023-04-23T10:45:32.370Z,2276.00
2023-04-23T10:46:32.365Z,2256.00
2023-04-23T10:47:32.319Z,1236.00
2023-04-23T10:48:32.265Z,904.00
2023-04-23T10:49:32.265Z,880.00
2023-04-23T10:50:32.246Z,856.00
2023-04-23T10:52:14.808Z,816.00
2023-04-23T10:52:32.188Z,820.00
2023-04-23T10:53:32.190Z,856.00
2023-04-23T10:54:32.141Z,816.00
2023-04-23T10:55:32.152Z,1184.00
2023-04-23T10:56:32.105Z,1040.00
2023-04-23T10:57:32.087Z,860.00
2023-04-23T10:58:32.053Z,1960.00
2023-04-23T10:59:32.037Z,2016.00
2023-04-23T11:00:32.014Z,2060.00
2023-04-23T11:01:32.068Z,2068.00
2023-04-23T11:02:32.097Z,1988.00
2023-04-23T11:03:32.196Z,1992.00
2023-04-23T11:04:32.111Z,2040.00
2023-04-23T11:05:31.931Z,2080.00
2023-04-23T11:06:31.887Z,1940.00
2023-04-23T11:07:31.877Z,1824.00
2023-04-23T11:08:31.853Z,1172.00
2023-04-23T11:09:31.829Z,1232.00
2023-04-23T11:10:31.808Z,1324.00
2023-04-23T11:11:31.804Z,868.00
2023-04-23T11:12:31.765Z,1092.00
2023-04-23T11:13:31.749Z,952.00
2023-04-23T11:14:31.728Z,1448.00
2023-04-23T11:15:31.721Z,1136.00
2023-04-23T11:16:31.758Z,1372.00
2023-04-23T11:17:31.722Z,1940.00
2023-04-23T11:18:31.640Z,1176.00
2023-04-23T11:19:31.634Z,1168.00
2023-04-23T11:20:31.597Z,1196.00
2023-04-23T11:21:31.606Z,972.00
2023-04-23T11:22:31.554Z,916.00
2023-04-23T11:23:31.544Z,932.00
2023-04-23T11:24:31.513Z,1060.00
2023-04-23T11:25:31.498Z,1156.00
2023-04-23T11:26:31.476Z,1108.00
2023-04-23T11:27:31.466Z,1080.00
2023-04-23T11:28:31.437Z,1084.00
2023-04-23T11:29:31.414Z,1192.00
2023-04-23T11:30:31.400Z,1148.00
2023-04-23T11:31:31.412Z,1272.00
2023-04-23T11:32:31.389Z,1336.00
2023-04-23T11:33:31.332Z,1896.00
2023-04-23T11:34:31.307Z,1844.00
2023-04-23T11:35:31.294Z,1840.00
2023-04-23T11:36:31.267Z,1248.00
2023-04-23T11:37:31.265Z,1352.00
2023-04-23T11:38:31.227Z,1608.00
2023-04-23T11:39:31.219Z,1428.00
2023-04-23T11:40:31.247Z,1564.00
2023-04-23T11:41:31.163Z,1676.00
2023-04-23T11:42:31.146Z,1816.00
2023-04-23T11:43:31.131Z,1808.00
2023-04-23T11:44:31.106Z,1748.00
2023-04-23T11:45:31.076Z,1480.00
2023-04-23T11:46:31.168Z,1384.00
2023-04-23T11:47:31.068Z,1380.00
2023-04-23T11:48:31.021Z,1504.00
2023-04-23T11:49:31.006Z,1572.00
2023-04-23T11:50:30.994Z,1420.00
2023-04-23T11:51:30.959Z,1472.00
2023-04-23T11:52:30.939Z,1380.00
2023-04-23T11:53:30.941Z,1396.00
2023-04-23T11:54:30.943Z,1436.00
2023-04-23T11:55:30.872Z,1364.00
2023-04-23T11:56:30.856Z,1296.00
2023-04-23T11:57:30.837Z,1300.00
2023-04-23T11:58:30.840Z,1288.00
2023-04-23T11:59:30.792Z,1192.00
2023-04-23T12:00:30.779Z,1288.00
2023-04-23T12:01:30.745Z,1444.00
2023-04-23T12:02:30.809Z,1404.00
2023-04-23T12:03:30.903Z,1304.00
2023-04-23T12:04:30.779Z,1300.00
2023-04-23T12:05:30.704Z,1176.00
2023-04-23T12:06:30.661Z,1108.00
2023-04-23T12:07:30.623Z,1060.00
2023-04-23T12:08:30.609Z,1024.00
2023-04-23T12:09:30.600Z,1020.00
2023-04-23T12:10:30.567Z,1020.00
2023-04-23T12:11:30.546Z,1012.00
2023-04-23T12:12:30.559Z,996.00
2023-04-23T12:13:30.508Z,996.00
2023-04-23T12:14:30.824Z,992.00
2023-04-23T12:15:30.462Z,996.00
2023-04-23T12:16:30.456Z,976.00
2023-04-23T12:17:30.419Z,992.00
2023-04-23T12:18:30.426Z,1012.00
2023-04-23T12:19:30.381Z,1024.00
2023-04-23T12:20:30.363Z,1068.00
2023-04-23T12:21:30.338Z,1072.00
2023-04-23T12:22:30.363Z,1072.00
2023-04-23T12:23:30.294Z,1092.00
2023-04-23T12:24:30.285Z,1132.00
2023-04-23T12:25:30.274Z,1152.00
2023-04-23T12:26:30.250Z,1096.00
2023-04-23T12:27:30.212Z,1088.00
2023-04-23T12:28:30.191Z,1076.00
2023-04-23T12:29:30.176Z,1096.00
2023-04-23T12:30:30.153Z,1148.00
2023-04-23T12:31:30.305Z,1048.00
2023-04-23T12:32:30.153Z,992.00
2023-04-23T12:33:30.092Z,932.00
2023-04-23T12:34:30.065Z,892.00
2023-04-23T12:35:30.047Z,880.00
2023-04-23T12:36:30.026Z,840.00
2023-04-23T12:37:30.018Z,828.00
2023-04-23T12:38:29.982Z,820.00
2023-04-23T12:39:29.967Z,836.00
2023-04-23T12:40:29.941Z,980.00